sensor_id;sensor_type;location;lat;lon;timestamp;temperature;humidity
41058;DHT22;27499;48.884;2.258;2022-09-09T00:01:55;18.30;99.90
41058;DHT22;27499;48.884;2.258;2022-09-09T00:07:05;18.30;99.90
41058;DHT22;27499;48.884;2.258;2022-09-09T00:09:44;18.30;99.90
41058;DHT22;27499;48.884;2.258;2022-09-09T00:20:05;18.20;99.90
41058;DHT22;27499;48.884;2.258;2022-09-09T00:22:38;18.30;99.90
41058;DHT22;27499;48.884;2.258;2022-09-09T00:25:13;18.20;99.90
41058;DHT22;27499;48.884;2.258;2022-09-09T00:27:50;18.20;99.90
41058;DHT22;27499;48.884;2.258;2022-09-09T00:30:20;18.20;99.90
41058;DHT22;27499;48.884;2.258;2022-09-09T00:32:53;18.30;99.90
41058;DHT22;27499;48.884;2.258;2022-09-09T00:35:34;18.20;99.90
41058;DHT22;27499;48.884;2.258;2022-09-09T00:40:52;18.20;99.90
41058;DHT22;27499;48.884;2.258;2022-09-09T00:43:30;18.20;99.90
41058;DHT22;27499;48.884;2.258;2022-09-09T00:49:20;18.20;99.90
41058;DHT22;27499;48.884;2.258;2022-09-09T00:55:21;18.20;99.90
41058;DHT22;27499;48.884;2.258;2022-09-09T00:57:52;18.20;99.90
41058;DHT22;27499;48.884;2.258;2022-09-09T01:00:23;18.20;99.90
41058;DHT22;27499;48.884;2.258;2022-09-09T01:05:44;18.20;99.90
41058;DHT22;27499;48.884;2.258;2022-09-09T01:08:39;18.20;99.90
41058;DHT22;27499;48.884;2.258;2022-09-09T01:11:13;18.10;99.90
41058;DHT22;27499;48.884;2.258;2022-09-09T01:13:45;18.20;99.90
41058;DHT22;27499;48.884;2.258;2022-09-09T01:16:16;18.20;99.90
41058;DHT22;27499;48.884;2.258;2022-09-09T01:18:47;18.10;99.90
41058;DHT22;27499;48.884;2.258;2022-09-09T01:21:36;18.10;99.90
41058;DHT22;27499;48.884;2.258;2022-09-09T01:24:33;18.20;99.90
41058;DHT22;27499;48.884;2.258;2022-09-09T01:27:05;18.10;99.90
41058;DHT22;27499;48.884;2.258;2022-09-09T01:29:32;18.10;99.90
41058;DHT22;27499;48.884;2.258;2022-09-09T01:32:02;18.10;99.90
41058;DHT22;27499;48.884;2.258;2022-09-09T01:34:33;18.10;99.90
41058;DHT22;27499;48.884;2.258;2022-09-09T01:37:05;18.10;99.90
41058;DHT22;27499;48.884;2.258;2022-09-09T01:39:33;18.10;99.90
41058;DHT22;27499;48.884;2.258;2022-09-09T01:42:03;18.10;99.90
41058;DHT22;27499;48.884;2.258;2022-09-09T01:44:31;18.10;99.90
41058;DHT22;27499;48.884;2.258;2022-09-09T01:46:59;18.10;99.90
41058;DHT22;27499;48.884;2.258;2022-09-09T02:05:34;18.20;99.90
41058;DHT22;27499;48.884;2.258;2022-09-09T02:08:21;18.20;99.90
41058;DHT22;27499;48.884;2.258;2022-09-09T02:11:11;18.20;99.90
41058;DHT22;27499;48.884;2.258;2022-09-09T02:13:40;18.20;99.90
41058;DHT22;27499;48.884;2.258;2022-09-09T02:21:20;18.10;99.90
41058;DHT22;27499;48.884;2.258;2022-09-09T02:23:49;18.20;99.90
41058;DHT22;27499;48.884;2.258;2022-09-09T02:26:20;18.10;99.90
41058;DHT22;27499;48.884;2.258;2022-09-09T02:28:51;18.10;99.90
41058;DHT22;27499;48.884;2.258;2022-09-09T02:31:22;18.10;99.90
41058;DHT22;27499;48.884;2.258;2022-09-09T02:33:56;18.10;99.90
41058;DHT22;27499;48.884;2.258;2022-09-09T02:36:26;18.10;99.90
41058;DHT22;27499;48.884;2.258;2022-09-09T02:38:56;18.10;99.90
41058;DHT22;27499;48.884;2.258;2022-09-09T02:41:27;18.10;99.90
41058;DHT22;27499;48.884;2.258;2022-09-09T02:43:55;18.00;99.90
41058;DHT22;27499;48.884;2.258;2022-09-09T02:55:02;18.00;99.90
41058;DHT22;27499;48.884;2.258;2022-09-09T02:57:33;18.00;99.90
41058;DHT22;27499;48.884;2.258;2022-09-09T03:00:00;18.10;99.90
41058;DHT22;27499;48.884;2.258;2022-09-09T03:02:28;18.10;99.90
41058;DHT22;27499;48.884;2.258;2022-09-09T03:04:55;18.10;99.90
41058;DHT22;27499;48.884;2.258;2022-09-09T03:07:22;18.10;99.90
41058;DHT22;27499;48.884;2.258;2022-09-09T03:09:49;18.10;99.90
41058;DHT22;27499;48.884;2.258;2022-09-09T03:12:15;18.20;99.90
41058;DHT22;27499;48.884;2.258;2022-09-09T03:14:43;18.20;99.90
41058;DHT22;27499;48.884;2.258;2022-09-09T03:17:12;18.20;99.90
41058;DHT22;27499;48.884;2.258;2022-09-09T03:19:39;18.10;99.90
41058;DHT22;27499;48.884;2.258;2022-09-09T03:22:08;18.10;99.90
41058;DHT22;27499;48.884;2.258;2022-09-09T03:24:36;18.10;99.90
41058;DHT22;27499;48.884;2.258;2022-09-09T03:27:03;18.10;99.90
41058;DHT22;27499;48.884;2.258;2022-09-09T03:29:30;18.10;99.90
41058;DHT22;27499;48.884;2.258;2022-09-09T03:31:57;18.10;99.90
41058;DHT22;27499;48.884;2.258;2022-09-09T03:34:24;18.10;99.90
41058;DHT22;27499;48.884;2.258;2022-09-09T03:36:50;18.20;99.90
41058;DHT22;27499;48.884;2.258;2022-09-09T03:39:17;18.20;99.90
41058;DHT22;27499;48.884;2.258;2022-09-09T03:41:44;18.10;99.90
41058;DHT22;27499;48.884;2.258;2022-09-09T03:44:11;18.10;99.90
41058;DHT22;27499;48.884;2.258;2022-09-09T03:46:39;18.10;99.90
41058;DHT22;27499;48.884;2.258;2022-09-09T03:49:06;18.10;99.90
41058;DHT22;27499;48.884;2.258;2022-09-09T03:51:32;18.10;99.90
41058;DHT22;27499;48.884;2.258;2022-09-09T03:54:03;18.10;99.90
41058;DHT22;27499;48.884;2.258;2022-09-09T03:56:31;18.10;99.90
41058;DHT22;27499;48.884;2.258;2022-09-09T03:58:58;18.10;99.90
41058;DHT22;27499;48.884;2.258;2022-09-09T04:01:26;18.00;99.90
41058;DHT22;27499;48.884;2.258;2022-09-09T04:03:53;18.00;99.90
41058;DHT22;27499;48.884;2.258;2022-09-09T04:06:21;18.00;99.90
41058;DHT22;27499;48.884;2.258;2022-09-09T04:08:48;18.00;99.90
41058;DHT22;27499;48.884;2.258;2022-09-09T04:11:15;18.00;99.90
41058;DHT22;27499;48.884;2.258;2022-09-09T04:13:42;18.00;99.90
41058;DHT22;27499;48.884;2.258;2022-09-09T04:16:12;18.00;99.90
41058;DHT22;27499;48.884;2.258;2022-09-09T04:18:42;18.00;99.90
41058;DHT22;27499;48.884;2.258;2022-09-09T04:21:10;18.00;99.90
41058;DHT22;27499;48.884;2.258;2022-09-09T04:23:38;17.90;99.90
41058;DHT22;27499;48.884;2.258;2022-09-09T04:26:05;17.90;99.90
41058;DHT22;27499;48.884;2.258;2022-09-09T04:28:34;17.90;99.90
41058;DHT22;27499;48.884;2.258;2022-09-09T04:31:07;17.90;99.90
41058;DHT22;27499;48.884;2.258;2022-09-09T04:33:34;17.90;99.90
41058;DHT22;27499;48.884;2.258;2022-09-09T04:36:06;17.90;99.90
41058;DHT22;27499;48.884;2.258;2022-09-09T04:38:33;17.90;99.90
41058;DHT22;27499;48.884;2.258;2022-09-09T04:41:00;17.90;99.90
41058;DHT22;27499;48.884;2.258;2022-09-09T04:43:28;17.90;99.90
41058;DHT22;27499;48.884;2.258;2022-09-09T04:45:55;17.90;99.90
41058;DHT22;27499;48.884;2.258;2022-09-09T04:48:22;17.90;99.90
41058;DHT22;27499;48.884;2.258;2022-09-09T04:51:03;17.80;99.90
41058;DHT22;27499;48.884;2.258;2022-09-09T04:53:31;17.90;99.90
41058;DHT22;27499;48.884;2.258;2022-09-09T04:56:05;17.80;99.90
41058;DHT22;27499;48.884;2.258;2022-09-09T04:58:33;17.80;99.90
41058;DHT22;27499;48.884;2.258;2022-09-09T05:01:08;17.80;99.90
41058;DHT22;27499;48.884;2.258;2022-09-09T05:03:36;17.80;99.90
41058;DHT22;27499;48.884;2.258;2022-09-09T05:06:10;17.80;99.90
41058;DHT22;27499;48.884;2.258;2022-09-09T05:08:38;17.80;99.90
41058;DHT22;27499;48.884;2.258;2022-09-09T05:11:16;17.80;99.90
41058;DHT22;27499;48.884;2.258;2022-09-09T05:13:44;17.70;99.90
41058;DHT22;27499;48.884;2.258;2022-09-09T05:16:12;17.70;99.90
41058;DHT22;27499;48.884;2.258;2022-09-09T05:18:40;17.70;99.90
41058;DHT22;27499;48.884;2.258;2022-09-09T05:21:07;17.70;99.90
41058;DHT22;27499;48.884;2.258;2022-09-09T05:23:34;17.70;99.90
41058;DHT22;27499;48.884;2.258;2022-09-09T05:26:02;17.70;99.90
41058;DHT22;27499;48.884;2.258;2022-09-09T05:28:29;17.70;99.90
41058;DHT22;27499;48.884;2.258;2022-09-09T05:30:58;17.70;99.90
41058;DHT22;27499;48.884;2.258;2022-09-09T05:33:25;17.70;99.90
41058;DHT22;27499;48.884;2.258;2022-09-09T05:36:03;17.80;99.90
41058;DHT22;27499;48.884;2.258;2022-09-09T05:38:30;17.80;99.90
41058;DHT22;27499;48.884;2.258;2022-09-09T05:40:57;17.70;99.90
41058;DHT22;27499;48.884;2.258;2022-09-09T05:43:25;17.70;99.90
41058;DHT22;27499;48.884;2.258;2022-09-09T05:46:19;17.70;99.90
41058;DHT22;27499;48.884;2.258;2022-09-09T05:48:48;17.80;99.90
41058;DHT22;27499;48.884;2.258;2022-09-09T05:51:20;17.80;99.90
41058;DHT22;27499;48.884;2.258;2022-09-09T05:53:48;17.80;99.90
41058;DHT22;27499;48.884;2.258;2022-09-09T05:56:20;17.90;99.90
41058;DHT22;27499;48.884;2.258;2022-09-09T05:58:49;17.90;99.90
41058;DHT22;27499;48.884;2.258;2022-09-09T06:01:18;17.90;99.90
41058;DHT22;27499;48.884;2.258;2022-09-09T06:03:46;17.90;99.90
41058;DHT22;27499;48.884;2.258;2022-09-09T06:06:16;17.90;99.90
41058;DHT22;27499;48.884;2.258;2022-09-09T06:08:44;17.90;99.90
41058;DHT22;27499;48.884;2.258;2022-09-09T06:11:17;18.00;99.90
41058;DHT22;27499;48.884;2.258;2022-09-09T06:13:44;18.00;99.90
41058;DHT22;27499;48.884;2.258;2022-09-09T06:16:14;18.00;99.90
41058;DHT22;27499;48.884;2.258;2022-09-09T06:18:41;18.00;99.90
41058;DHT22;27499;48.884;2.258;2022-09-09T06:21:15;18.00;99.90
41058;DHT22;27499;48.884;2.258;2022-09-09T06:23:42;18.00;99.90
41058;DHT22;27499;48.884;2.258;2022-09-09T06:26:13;18.10;99.90
41058;DHT22;27499;48.884;2.258;2022-09-09T06:28:41;18.20;99.90
41058;DHT22;27499;48.884;2.258;2022-09-09T06:31:11;18.20;99.90
41058;DHT22;27499;48.884;2.258;2022-09-09T06:33:40;18.20;99.90
41058;DHT22;27499;48.884;2.258;2022-09-09T06:36:12;18.20;99.90
41058;DHT22;27499;48.884;2.258;2022-09-09T06:38:39;18.20;99.90
41058;DHT22;27499;48.884;2.258;2022-09-09T06:41:06;18.20;99.90
41058;DHT22;27499;48.884;2.258;2022-09-09T06:43:33;18.20;99.90
41058;DHT22;27499;48.884;2.258;2022-09-09T06:48:32;18.30;99.90
41058;DHT22;27499;48.884;2.258;2022-09-09T06:53:39;18.30;99.90
41058;DHT22;27499;48.884;2.258;2022-09-09T06:56:19;18.30;99.90
41058;DHT22;27499;48.884;2.258;2022-09-09T06:58:49;18.40;99.90
41058;DHT22;27499;48.884;2.258;2022-09-09T07:01:18;18.40;99.90
41058;DHT22;27499;48.884;2.258;2022-09-09T07:03:50;18.40;99.90
41058;DHT22;27499;48.884;2.258;2022-09-09T07:06:23;18.40;99.90
41058;DHT22;27499;48.884;2.258;2022-09-09T07:08:55;18.40;99.90
41058;DHT22;27499;48.884;2.258;2022-09-09T07:11:24;18.40;99.90
41058;DHT22;27499;48.884;2.258;2022-09-09T07:13:53;18.30;99.90
41058;DHT22;27499;48.884;2.258;2022-09-09T07:16:22;18.40;99.90
41058;DHT22;27499;48.884;2.258;2022-09-09T07:18:52;18.40;99.90
41058;DHT22;27499;48.884;2.258;2022-09-09T07:21:21;18.40;99.90
41058;DHT22;27499;48.884;2.258;2022-09-09T07:23:48;18.40;99.90
41058;DHT22;27499;48.884;2.258;2022-09-09T07:26:21;18.50;99.90
41058;DHT22;27499;48.884;2.258;2022-09-09T07:28:48;18.50;99.90
41058;DHT22;27499;48.884;2.258;2022-09-09T07:31:18;18.60;99.90
41058;DHT22;27499;48.884;2.258;2022-09-09T07:33:46;18.60;99.90
41058;DHT22;27499;48.884;2.258;2022-09-09T07:38:50;18.60;99.90
41058;DHT22;27499;48.884;2.258;2022-09-09T07:41:24;18.60;99.90
41058;DHT22;27499;48.884;2.258;2022-09-09T07:43:52;18.70;99.90
41058;DHT22;27499;48.884;2.258;2022-09-09T07:46:22;18.70;99.90
41058;DHT22;27499;48.884;2.258;2022-09-09T07:48:52;18.70;99.90
41058;DHT22;27499;48.884;2.258;2022-09-09T07:51:31;18.70;99.90
41058;DHT22;27499;48.884;2.258;2022-09-09T07:54:00;18.80;99.90
41058;DHT22;27499;48.884;2.258;2022-09-09T07:56:29;18.80;99.90
41058;DHT22;27499;48.884;2.258;2022-09-09T07:58:59;18.80;99.90
41058;DHT22;27499;48.884;2.258;2022-09-09T08:01:29;18.80;99.90
41058;DHT22;27499;48.884;2.258;2022-09-09T08:04:07;18.70;99.90
41058;DHT22;27499;48.884;2.258;2022-09-09T08:06:40;18.80;99.90
41058;DHT22;27499;48.884;2.258;2022-09-09T08:09:09;18.80;99.90
41058;DHT22;27499;48.884;2.258;2022-09-09T08:11:37;18.80;99.90
41058;DHT22;27499;48.884;2.258;2022-09-09T08:14:06;18.80;99.90
41058;DHT22;27499;48.884;2.258;2022-09-09T08:16:37;18.80;99.90
41058;DHT22;27499;48.884;2.258;2022-09-09T08:19:04;18.90;99.90
41058;DHT22;27499;48.884;2.258;2022-09-09T08:21:33;18.90;99.90
41058;DHT22;27499;48.884;2.258;2022-09-09T08:24:01;18.90;99.90
41058;DHT22;27499;48.884;2.258;2022-09-09T08:26:31;18.90;99.90
41058;DHT22;27499;48.884;2.258;2022-09-09T08:28:59;18.90;99.90
41058;DHT22;27499;48.884;2.258;2022-09-09T08:31:36;19.00;99.90
41058;DHT22;27499;48.884;2.258;2022-09-09T08:34:04;19.00;99.90
41058;DHT22;27499;48.884;2.258;2022-09-09T08:36:37;19.00;99.90
41058;DHT22;27499;48.884;2.258;2022-09-09T08:39:06;19.00;99.90
41058;DHT22;27499;48.884;2.258;2022-09-09T08:52:53;19.10;99.90
41058;DHT22;27499;48.884;2.258;2022-09-09T08:55:35;19.10;99.90
41058;DHT22;27499;48.884;2.258;2022-09-09T08:58:14;19.10;99.90
41058;DHT22;27499;48.884;2.258;2022-09-09T09:09:01;19.60;99.90
41058;DHT22;27499;48.884;2.258;2022-09-09T09:11:49;19.60;99.90
41058;DHT22;27499;48.884;2.258;2022-09-09T09:16:56;19.70;99.90
41058;DHT22;27499;48.884;2.258;2022-09-09T09:19:25;19.80;99.90
41058;DHT22;27499;48.884;2.258;2022-09-09T09:22:22;19.80;99.90
41058;DHT22;27499;48.884;2.258;2022-09-09T09:24:56;19.90;99.90
41058;DHT22;27499;48.884;2.258;2022-09-09T09:27:31;19.90;99.90
41058;DHT22;27499;48.884;2.258;2022-09-09T09:30:14;19.90;99.90
41058;DHT22;27499;48.884;2.258;2022-09-09T09:35:26;19.90;99.90
41058;DHT22;27499;48.884;2.258;2022-09-09T09:37:53;19.90;99.90
41058;DHT22;27499;48.884;2.258;2022-09-09T09:40:52;19.80;99.90
41058;DHT22;27499;48.884;2.258;2022-09-09T09:43:25;19.80;99.90
41058;DHT22;27499;48.884;2.258;2022-09-09T09:45:53;19.80;99.90
41058;DHT22;27499;48.884;2.258;2022-09-09T09:48:40;19.80;99.90
41058;DHT22;27499;48.884;2.258;2022-09-09T09:51:09;19.80;99.90
41058;DHT22;27499;48.884;2.258;2022-09-09T09:53:38;19.70;99.90
41058;DHT22;27499;48.884;2.258;2022-09-09T09:56:08;19.80;99.90
41058;DHT22;27499;48.884;2.258;2022-09-09T10:01:40;19.80;99.90
41058;DHT22;27499;48.884;2.258;2022-09-09T10:04:19;19.90;99.90
41058;DHT22;27499;48.884;2.258;2022-09-09T10:06:47;19.90;99.90
41058;DHT22;27499;48.884;2.258;2022-09-09T10:31:54;20.20;99.90
41058;DHT22;27499;48.884;2.258;2022-09-09T10:34:59;20.30;99.90
41058;DHT22;27499;48.884;2.258;2022-09-09T10:40:33;20.30;99.90
41058;DHT22;27499;48.884;2.258;2022-09-09T10:48:31;20.40;99.90
41058;DHT22;27499;48.884;2.258;2022-09-09T10:51:23;20.40;99.90
41058;DHT22;27499;48.884;2.258;2022-09-09T10:56:22;20.40;99.90
41058;DHT22;27499;48.884;2.258;2022-09-09T10:58:56;20.50;99.90
41058;DHT22;27499;48.884;2.258;2022-09-09T11:01:33;20.50;99.90
41058;DHT22;27499;48.884;2.258;2022-09-09T11:04:32;20.50;99.90
41058;DHT22;27499;48.884;2.258;2022-09-09T11:07:02;20.40;99.90
41058;DHT22;27499;48.884;2.258;2022-09-09T11:09:42;20.40;99.90
41058;DHT22;27499;48.884;2.258;2022-09-09T11:12:15;20.40;99.90
41058;DHT22;27499;48.884;2.258;2022-09-09T11:14:50;20.40;99.90
41058;DHT22;27499;48.884;2.258;2022-09-09T11:17:25;20.40;99.90
41058;DHT22;27499;48.884;2.258;2022-09-09T11:19:53;20.40;99.90
41058;DHT22;27499;48.884;2.258;2022-09-09T11:22:35;20.50;99.90
41058;DHT22;27499;48.884;2.258;2022-09-09T11:27:44;20.50;99.90
41058;DHT22;27499;48.884;2.258;2022-09-09T11:36:50;20.50;99.90
41058;DHT22;27499;48.884;2.258;2022-09-09T11:42:29;20.60;99.90
41058;DHT22;27499;48.884;2.258;2022-09-09T11:44:55;20.60;99.90
41058;DHT22;27499;48.884;2.258;2022-09-09T11:47:28;20.60;99.90
41058;DHT22;27499;48.884;2.258;2022-09-09T11:50:28;20.60;99.90
41058;DHT22;27499;48.884;2.258;2022-09-09T11:53:21;20.70;99.90
41058;DHT22;27499;48.884;2.258;2022-09-09T11:56:10;20.70;99.90
41058;DHT22;27499;48.884;2.258;2022-09-09T11:58:40;20.70;99.90
41058;DHT22;27499;48.884;2.258;2022-09-09T12:01:49;20.70;99.90
41058;DHT22;27499;48.884;2.258;2022-09-09T12:04:28;20.80;99.90
41058;DHT22;27499;48.884;2.258;2022-09-09T12:17:19;20.70;99.90
41058;DHT22;27499;48.884;2.258;2022-09-09T12:19:47;20.70;99.90
41058;DHT22;27499;48.884;2.258;2022-09-09T12:22:35;20.70;99.90
41058;DHT22;27499;48.884;2.258;2022-09-09T12:37:17;20.20;99.90
41058;DHT22;27499;48.884;2.258;2022-09-09T12:40:21;20.10;99.90
41058;DHT22;27499;48.884;2.258;2022-09-09T12:42:48;19.90;99.90
41058;DHT22;27499;48.884;2.258;2022-09-09T12:48:06;19.70;99.90
41058;DHT22;27499;48.884;2.258;2022-09-09T12:50:43;19.70;99.90
41058;DHT22;27499;48.884;2.258;2022-09-09T12:53:29;19.70;99.90
41058;DHT22;27499;48.884;2.258;2022-09-09T12:56:05;19.60;99.90
41058;DHT22;27499;48.884;2.258;2022-09-09T12:58:37;19.60;99.90
41058;DHT22;27499;48.884;2.258;2022-09-09T13:01:05;19.50;99.90
41058;DHT22;27499;48.884;2.258;2022-09-09T13:03:33;19.50;99.90
41058;DHT22;27499;48.884;2.258;2022-09-09T13:06:17;19.50;99.90
41058;DHT22;27499;48.884;2.258;2022-09-09T13:08:45;19.50;99.90
41058;DHT22;27499;48.884;2.258;2022-09-09T13:11:38;19.50;99.90
41058;DHT22;27499;48.884;2.258;2022-09-09T13:14:06;19.40;99.90
41058;DHT22;27499;48.884;2.258;2022-09-09T13:16:34;19.40;99.90
41058;DHT22;27499;48.884;2.258;2022-09-09T13:19:15;19.40;99.90
41058;DHT22;27499;48.884;2.258;2022-09-09T13:21:43;19.30;99.90
41058;DHT22;27499;48.884;2.258;2022-09-09T13:24:39;19.30;99.90
41058;DHT22;27499;48.884;2.258;2022-09-09T13:27:33;19.30;99.90
41058;DHT22;27499;48.884;2.258;2022-09-09T13:30:01;19.30;99.90
41058;DHT22;27499;48.884;2.258;2022-09-09T13:32:29;19.30;99.90
41058;DHT22;27499;48.884;2.258;2022-09-09T13:34:58;19.30;99.90
41058;DHT22;27499;48.884;2.258;2022-09-09T13:37:32;19.30;99.90
41058;DHT22;27499;48.884;2.258;2022-09-09T13:40:00;19.30;99.90
41058;DHT22;27499;48.884;2.258;2022-09-09T13:42:31;19.30;99.90
41058;DHT22;27499;48.884;2.258;2022-09-09T13:44:59;19.20;99.90
41058;DHT22;27499;48.884;2.258;2022-09-09T13:47:34;19.20;99.90
41058;DHT22;27499;48.884;2.258;2022-09-09T13:50:30;19.20;99.90
41058;DHT22;27499;48.884;2.258;2022-09-09T13:52:59;19.20;99.90
41058;DHT22;27499;48.884;2.258;2022-09-09T13:55:29;19.20;99.90
41058;DHT22;27499;48.884;2.258;2022-09-09T13:58:02;19.20;99.90
41058;DHT22;27499;48.884;2.258;2022-09-09T14:00:31;19.30;99.90
41058;DHT22;27499;48.884;2.258;2022-09-09T14:02:59;19.30;99.90
41058;DHT22;27499;48.884;2.258;2022-09-09T14:05:31;19.30;99.90
41058;DHT22;27499;48.884;2.258;2022-09-09T14:08:00;19.30;99.90
41058;DHT22;27499;48.884;2.258;2022-09-09T14:10:30;19.30;99.90
41058;DHT22;27499;48.884;2.258;2022-09-09T14:12:56;19.30;99.90
41058;DHT22;27499;48.884;2.258;2022-09-09T14:15:23;19.30;99.90
41058;DHT22;27499;48.884;2.258;2022-09-09T14:17:50;19.30;99.90
41058;DHT22;27499;48.884;2.258;2022-09-09T14:20:19;19.30;99.90
41058;DHT22;27499;48.884;2.258;2022-09-09T14:22:46;19.30;99.90
41058;DHT22;27499;48.884;2.258;2022-09-09T14:25:13;19.30;99.90
41058;DHT22;27499;48.884;2.258;2022-09-09T14:27:42;19.20;99.90
41058;DHT22;27499;48.884;2.258;2022-09-09T14:30:10;19.20;99.90
41058;DHT22;27499;48.884;2.258;2022-09-09T14:32:37;19.20;99.90
41058;DHT22;27499;48.884;2.258;2022-09-09T14:35:04;19.20;99.90
41058;DHT22;27499;48.884;2.258;2022-09-09T14:37:31;19.20;99.90
41058;DHT22;27499;48.884;2.258;2022-09-09T14:39:58;19.20;99.90
41058;DHT22;27499;48.884;2.258;2022-09-09T14:42:25;19.20;99.90
41058;DHT22;27499;48.884;2.258;2022-09-09T14:44:53;19.20;99.90
41058;DHT22;27499;48.884;2.258;2022-09-09T14:47:20;19.20;99.90
41058;DHT22;27499;48.884;2.258;2022-09-09T14:49:47;19.30;99.90
41058;DHT22;27499;48.884;2.258;2022-09-09T14:52:16;19.40;99.90
41058;DHT22;27499;48.884;2.258;2022-09-09T14:54:43;19.40;99.90
41058;DHT22;27499;48.884;2.258;2022-09-09T14:57:09;19.50;99.90
41058;DHT22;27499;48.884;2.258;2022-09-09T14:59:36;19.50;99.90
41058;DHT22;27499;48.884;2.258;2022-09-09T15:02:03;19.50;99.90
41058;DHT22;27499;48.884;2.258;2022-09-09T15:04:31;19.50;99.90
41058;DHT22;27499;48.884;2.258;2022-09-09T15:06:58;19.50;99.90
41058;DHT22;27499;48.884;2.258;2022-09-09T15:09:25;19.50;99.90
41058;DHT22;27499;48.884;2.258;2022-09-09T15:11:52;19.50;99.90
41058;DHT22;27499;48.884;2.258;2022-09-09T15:14:19;19.50;99.90
41058;DHT22;27499;48.884;2.258;2022-09-09T15:16:51;19.50;99.90
41058;DHT22;27499;48.884;2.258;2022-09-09T15:19:18;19.60;99.90
41058;DHT22;27499;48.884;2.258;2022-09-09T15:21:45;19.60;99.90
41058;DHT22;27499;48.884;2.258;2022-09-09T15:24:12;19.60;99.90
41058;DHT22;27499;48.884;2.258;2022-09-09T15:26:39;19.70;99.90
41058;DHT22;27499;48.884;2.258;2022-09-09T15:29:07;19.60;99.90
41058;DHT22;27499;48.884;2.258;2022-09-09T15:31:35;19.60;99.90
41058;DHT22;27499;48.884;2.258;2022-09-09T15:34:04;19.70;99.90
41058;DHT22;27499;48.884;2.258;2022-09-09T15:39:05;19.70;99.90
41058;DHT22;27499;48.884;2.258;2022-09-09T15:41:33;19.60;99.90
41058;DHT22;27499;48.884;2.258;2022-09-09T15:44:00;19.60;99.90
41058;DHT22;27499;48.884;2.258;2022-09-09T15:46:37;19.60;99.90
41058;DHT22;27499;48.884;2.258;2022-09-09T15:51:38;19.60;99.90
41058;DHT22;27499;48.884;2.258;2022-09-09T15:54:11;19.60;99.90
41058;DHT22;27499;48.884;2.258;2022-09-09T15:56:39;19.60;99.90
41058;DHT22;27499;48.884;2.258;2022-09-09T15:59:06;19.60;99.90
41058;DHT22;27499;48.884;2.258;2022-09-09T16:01:34;19.60;99.90
41058;DHT22;27499;48.884;2.258;2022-09-09T16:04:02;19.60;99.90
41058;DHT22;27499;48.884;2.258;2022-09-09T16:06:29;19.60;99.90
41058;DHT22;27499;48.884;2.258;2022-09-09T16:08:58;19.60;99.90
41058;DHT22;27499;48.884;2.258;2022-09-09T16:11:29;19.70;99.90
41058;DHT22;27499;48.884;2.258;2022-09-09T16:13:58;19.70;99.90
41058;DHT22;27499;48.884;2.258;2022-09-09T16:16:27;19.70;99.90
41058;DHT22;27499;48.884;2.258;2022-09-09T16:19:03;19.70;99.90
41058;DHT22;27499;48.884;2.258;2022-09-09T16:21:33;19.70;99.90
41058;DHT22;27499;48.884;2.258;2022-09-09T16:24:02;19.60;99.90
41058;DHT22;27499;48.884;2.258;2022-09-09T16:26:34;19.60;99.90
41058;DHT22;27499;48.884;2.258;2022-09-09T16:29:02;19.60;99.90
41058;DHT22;27499;48.884;2.258;2022-09-09T16:31:30;19.60;99.90
41058;DHT22;27499;48.884;2.258;2022-09-09T16:33:58;19.60;99.90
41058;DHT22;27499;48.884;2.258;2022-09-09T16:36:27;19.50;99.90
41058;DHT22;27499;48.884;2.258;2022-09-09T16:38:56;19.60;99.90
41058;DHT22;27499;48.884;2.258;2022-09-09T16:41:27;19.50;99.90
41058;DHT22;27499;48.884;2.258;2022-09-09T16:43:59;19.40;99.90
41058;DHT22;27499;48.884;2.258;2022-09-09T16:46:27;19.40;99.90
41058;DHT22;27499;48.884;2.258;2022-09-09T16:49:00;19.50;99.90
41058;DHT22;27499;48.884;2.258;2022-09-09T16:51:35;19.40;99.90
41058;DHT22;27499;48.884;2.258;2022-09-09T16:54:04;19.40;99.90
41058;DHT22;27499;48.884;2.258;2022-09-09T16:56:35;19.50;99.90
41058;DHT22;27499;48.884;2.258;2022-09-09T16:59:12;19.50;99.90
41058;DHT22;27499;48.884;2.258;2022-09-09T17:01:41;19.50;99.90
41058;DHT22;27499;48.884;2.258;2022-09-09T17:04:11;19.40;99.90
41058;DHT22;27499;48.884;2.258;2022-09-09T17:06:39;19.40;99.90
41058;DHT22;27499;48.884;2.258;2022-09-09T17:09:10;19.50;99.90
41058;DHT22;27499;48.884;2.258;2022-09-09T17:11:38;19.50;99.90
41058;DHT22;27499;48.884;2.258;2022-09-09T17:14:07;19.40;99.90
41058;DHT22;27499;48.884;2.258;2022-09-09T17:16:36;19.50;99.90
41058;DHT22;27499;48.884;2.258;2022-09-09T17:19:03;19.50;99.90
41058;DHT22;27499;48.884;2.258;2022-09-09T17:21:31;19.50;99.90
41058;DHT22;27499;48.884;2.258;2022-09-09T17:23:59;19.50;99.90
41058;DHT22;27499;48.884;2.258;2022-09-09T17:26:29;19.40;99.90
41058;DHT22;27499;48.884;2.258;2022-09-09T17:28:56;19.40;99.90
41058;DHT22;27499;48.884;2.258;2022-09-09T17:31:26;19.40;99.90
41058;DHT22;27499;48.884;2.258;2022-09-09T17:33:55;19.40;99.90
41058;DHT22;27499;48.884;2.258;2022-09-09T17:36:25;19.30;99.90
41058;DHT22;27499;48.884;2.258;2022-09-09T17:38:52;19.30;99.90
41058;DHT22;27499;48.884;2.258;2022-09-09T17:43:48;19.20;99.90
41058;DHT22;27499;48.884;2.258;2022-09-09T17:46:24;19.20;99.90
41058;DHT22;27499;48.884;2.258;2022-09-09T17:48:52;19.10;99.90
41058;DHT22;27499;48.884;2.258;2022-09-09T17:51:22;19.10;99.90
41058;DHT22;27499;48.884;2.258;2022-09-09T17:53:55;19.00;99.90
41058;DHT22;27499;48.884;2.258;2022-09-09T17:56:25;19.00;99.90
41058;DHT22;27499;48.884;2.258;2022-09-09T17:58:52;19.00;99.90
41058;DHT22;27499;48.884;2.258;2022-09-09T18:01:24;18.90;99.90
41058;DHT22;27499;48.884;2.258;2022-09-09T18:03:54;18.90;99.90
41058;DHT22;27499;48.884;2.258;2022-09-09T18:06:27;18.80;99.90
41058;DHT22;27499;48.884;2.258;2022-09-09T18:08:56;18.80;99.90
41058;DHT22;27499;48.884;2.258;2022-09-09T18:11:27;18.80;99.90
41058;DHT22;27499;48.884;2.258;2022-09-09T18:13:57;18.80;99.90
41058;DHT22;27499;48.884;2.258;2022-09-09T18:16:24;18.70;99.90
41058;DHT22;27499;48.884;2.258;2022-09-09T18:18:54;18.70;99.90
41058;DHT22;27499;48.884;2.258;2022-09-09T18:21:21;18.70;99.90
41058;DHT22;27499;48.884;2.258;2022-09-09T18:23:49;18.70;99.90
41058;DHT22;27499;48.884;2.258;2022-09-09T18:26:21;18.70;99.90
41058;DHT22;27499;48.884;2.258;2022-09-09T18:28:50;18.60;99.90
41058;DHT22;27499;48.884;2.258;2022-09-09T18:31:18;18.70;99.90
41058;DHT22;27499;48.884;2.258;2022-09-09T18:33:47;18.70;99.90
41058;DHT22;27499;48.884;2.258;2022-09-09T18:36:19;18.60;99.90
41058;DHT22;27499;48.884;2.258;2022-09-09T18:38:47;18.60;99.90
41058;DHT22;27499;48.884;2.258;2022-09-09T18:41:20;18.70;99.90
41058;DHT22;27499;48.884;2.258;2022-09-09T18:43:51;18.70;99.90